• Join FlightAware (Why Join?)
  • Login
  • US Flag 
05:41AM EDT


 

Airport Tracker/Info


-or-


 

Live Flight TrackerFlight Track Log ✈ N758T ✈ 02-Oct-2013 ✈ KBVI - 2G9

Flight Track Log - Related Links

Times and Time Zones

All times are in EDT time to prevent confusion due to time zone crossing. See the N758T flight status page for this flight to view local times or setup timezone preferences in your user account.

Time Position Orientation Groundspeed Altitude Reporting Facility
EDT Latitude Longitude Course Direction KTS MPH feet Rate Location/Type
03:23PM 40.7442 -80.3578 125° Southeast 161 185 2,400  Level Cleveland Center
03:24PM 40.7236 -80.2931 113° Southeast 159 183 2,400  Level Cleveland Center
03:25PM 40.7014 -80.2461 122° Southeast 156 180 2,400  Level Cleveland Center
03:26PM 40.6758 -80.2003 126° Southeast 154 177 2,500  Climbing Cleveland Center
03:27PM 40.6589 -80.1475 113° Southeast 155 178 2,400  Descending Cleveland Center
03:28PM 40.5977 -80.0616 125° Southeast  Level FlightAware Approximate
03:28PM 40.6372 -80.0969 119° Southeast 153 176 2,600  Level Cleveland Center
03:29PM 40.6147 -80.0503 122° Southeast 155 178 2,500 -120 Descending Cleveland Center
03:30PM 40.5939 -79.9881 114° Southeast 155 178 2,400  Descending Cleveland Center
03:31PM 40.5736 -79.9383 118° Southeast 154 177 2,500  Climbing Cleveland Center
03:32PM 40.5472 -79.8953 129° Southeast 152 175 2,500  Level Cleveland Center
03:33PM 40.5228 -79.8494 125° Southeast 152 175 2,500  Level Cleveland Center
03:34PM 40.4975 -79.8028 125° Southeast 154 177 2,500  Level Cleveland Center
03:35PM 40.4719 -79.7553 125° Southeast 158 182 2,500  Level Cleveland Center
03:36PM 40.4467 -79.7106 127° Southeast 156 180 2,500  Level Cleveland Center
03:37PM 40.4167 -79.6575 127° Southeast 153 176 2,500 360 Level Cleveland Center
03:38PM 40.3928 -79.6103 124° Southeast 155 178 3,300 480 Climbing Cleveland Center
03:39PM 40.3661 -79.5653 128° Southeast 156 180 3,500 120 Climbing Cleveland Center
03:40PM 40.3406 -79.5197 126° Southeast 158 182 3,600  Climbing Cleveland Center
03:40PM 40.3397 -79.5194 166° South 158 182 3,500  Descending Cleveland Center
03:41PM 40.3186 -79.4836 128° Southeast 161 185 3,600  Climbing Cleveland Center
03:42PM 40.3114 -79.4725 130° Southeast 162 186 3,500  Descending Cleveland Center
03:42PM 40.2911 -79.4383 128° Southeast 162 186 3,600 -120 Climbing Cleveland Center
03:43PM 40.2844 -79.4253 124° Southeast 162 186 3,400  Descending Cleveland Center
03:43PM 40.2597 -79.3872 130° Southeast 164 189 3,600 60 Climbing Cleveland Center
03:44PM 40.2508 -79.3700 124° Southeast 162 186 3,500 -120 Descending Cleveland Center
03:44PM 40.2322 -79.3394 129° Southeast 164 189 3,500  Level Cleveland Center
03:45PM 40.2225 -79.3219 126° Southeast 164 189 3,500 60 Level Cleveland Center
03:45PM 40.2047 -79.2944 130° Southeast 163 188 3,600  Climbing Cleveland Center
03:46PM 40.1917 -79.2722 128° Southeast 164 189 3,500  Descending Cleveland Center
03:46PM 40.1750 -79.2492 133° Southeast 162 186 3,600  Climbing Cleveland Center
03:47PM 40.1625 -79.2272 127° Southeast 164 189 3,500  Descending Cleveland Center
03:47PM 40.1472 -79.2042 131° Southeast 163 188 3,600  Climbing Cleveland Center
03:48PM 40.1361 -79.1833 125° Southeast 163 188 3,500 -180 Descending Cleveland Center
03:50PM 40.0873 -79.1042 129° Southeast  Level FlightAware Approximate
03:57PM 40.0389 -79.0150 90° East  Level Estimated